Dniproavia E145 at Moscow on May 5th 2012, runway excursion

Last Update: May 7, 2012 / 16:56:33 GMT/Zulu time

Bookmark this article
Incident Facts

Date of incident
May 5, 2012

Airline
Dniproavia

Flight number
VV-503

Aircraft Registration
UR-DNR

Aircraft Type
Embraer ERJ-145

ICAO Type Designator
E145

A Dniproavia Embraer ERJ-145 on behalf of Aerosvit, registration UR-DNR performing flight VV-503 from Dnepropetrovsk (Ukraine) to Moscow Sheremetyevo (Russia) with 22 people on board, landed on Sheremetyevo's runway 25R at about 21:32L (17:32Z) but veered right off the runway and came to a stop about 50 meters/160 feet right off the runway on soft ground, about half way down the runway. The next aircraft on short final to runway 25R was instructed to go-around. No injuries occurred, the aircraft sustained no visible damage.

The return flight VV-504 was cancelled.

Metars:
UUEE 051900Z 19002MPS 140V230 9999 SCT050CB SCT100 BKN200 15/14 Q1005 NOSIG
UUEE 051830Z 19004MPS 9999 SCT033CB BKN100 BKN200 15/13 Q1005 RETS NOSIG
UUEE 051800Z 18003MPS 9999 -SHRA SCT033CB BKN100 BKN200 15/14 Q1006 RETS NOSIG
UUEE 051730Z 17004G09MPS 9999 -SHRA VCTS SCT030CB BKN100 BKN200 15/14 Q1006 NOSIG
UUEE 051700Z 28003MPS 5000 -TSRA BKN030CB 15/14 Q1006 NOSIG
UUEE 051630Z 23003MPS 200V260 5000 -SHRA VCTS BKN053CB 15/13 Q1005 NOSIG
UUEE 051600Z 23009G16MPS 5000 -SHRA VCTS BKN040CB 18/11 Q1005 NOSIG
UUEE 051530Z 16005MPS 9999 VCTS SCT050CB BKN100 BKN200 22/06 Q1003 NOSIG
UUEE 051500Z 16006MPS 9999 SCT050CB BKN100 BKN200 22/06 Q1003 NOSIG
UUEE 051430Z 18006MPS CAVOK 23/06 Q1004 NOSIG
UUEE 051400Z 17006MPS CAVOK 22/05 Q1004 NOSIG
Incident Facts

Date of incident
May 5, 2012

Airline
Dniproavia

Flight number
VV-503

Aircraft Registration
UR-DNR

Aircraft Type
Embraer ERJ-145

ICAO Type Designator
E145

This article is published under license from Avherald.com. © of text by Avherald.com.
Article source

You can read 2 more free articles without a subscription.

Subscribe now and continue reading without any limits!

Are you a subscriber? Login
Subscribe

Read unlimited articles and receive our daily update briefing. Gain better insights into what is happening in commercial aviation safety.

Free newsletter

Want to know more and stay ahead? Get our free weekly newsletter and join 5470 existing subscribers.

By subscribing, you accept our terms and conditions and confirm that you've read our privacy policy.

Send tip

Support AeroInside by sending a small tip amount.

Related articles

Newest articles

Subscribe today

Are you researching aviation incidents? Get access to AeroInside Insights, unlimited read access and receive the daily newsletter.

Pick your plan and subscribe

Partner

Blockaviation logo

A new way to document and demonstrate airworthiness compliance and aircraft value. Find out more.

Virtual Speech logo

ELITE Simulation Solutions is a leading global provider of Flight Simulation Training Devices, IFR training software as well as flight controls and related services. Find out more.

Get updates

Never miss an article from AeroInside. Subscribe to our free weekly newsletter and join 5470 existing subscribers.

By subscribing, you accept our terms and conditions and that you've read our privacy policy.

AeroInside Blog
Popular aircraft
Airbus A320
Boeing 737-800
Boeing 737-800 MAX
Popular airlines
American Airlines
United
Delta
Air Canada
Lufthansa
British Airways